KDRT/DRT METAR and TAF weather

Enter ICAO airport designator
Station Type Date Time Source
KDRT METAR 2020/11/28 19:53 UTC NOAA

KDRT 281953Z AUTO 32010G21KT 10SM OVC041 16/09 A3009 RMK AO2 SLP179 T01560089


Station Type Date Time Source
KDRT Decoded METAR 2020/11/28 19:53 UTC NOAA

DEL RIO INTERNATIONAL AIRPORT, TX, United States (KDRT) 29-22N 100-55W 313M
Nov 28, 2020 - 02:53 PM EST / 2020.11.28 1953 UTC
Wind: from the NW (320 degrees) at 12 MPH (10 KT) gusting to 24 MPH (21 KT):0
Visibility: 10 mile(s):0
Sky conditions: overcast
Temperature: 60.1 F (15.6 C)
Dew Point: 48.0 F (8.9 C)
Relative Humidity: 64%
Pressure (altimeter): 30.09 in. Hg (1018 hPa)
ob: KDRT 281953Z AUTO 32010G21KT 10SM OVC041 16/09 A3009 RMK AO2 SLP179 T01560089
cycle: 20

Station Type Date Time Source
KDRT TAF 2020/11/28 18:57 UTC NOAA

TAF KDRT 281755Z 2818/2918 33012KT P6SM SCT025 OVC035
TEMPO 2818/2821 6SM -SHRA BR BKN025
FM282100 33009KT P6SM VCSH BKN035
FM290400 31004KT P6SM FEW050 FEW250
FM291600 32008KT P6SM SKC

Example: see airport list